createdAt,value
2017-12-29T00:00:23.384Z,74.05
2017-12-29T00:02:50.904Z,74.43
2017-12-29T00:05:18.418Z,74.18
2017-12-29T00:07:45.926Z,74.05
2017-12-29T00:10:13.455Z,74.84
2017-12-29T00:12:40.992Z,74.78
2017-12-29T00:15:08.572Z,75.12
2017-12-29T00:17:36.096Z,75.06
2017-12-29T00:20:03.619Z,75.10
2017-12-29T00:22:31.131Z,75.11
2017-12-29T00:24:58.641Z,75.17
2017-12-29T00:27:26.584Z,75.26
2017-12-29T00:29:54.093Z,75.00
2017-12-29T00:32:21.594Z,75.12
2017-12-29T00:34:49.112Z,75.05
2017-12-29T00:37:16.621Z,75.26
2017-12-29T00:39:44.132Z,75.30
2017-12-29T00:42:11.646Z,75.14
2017-12-29T00:44:39.182Z,75.61
2017-12-29T00:47:06.706Z,75.87
2017-12-29T00:49:34.211Z,75.45
2017-12-29T00:52:01.721Z,75.59
2017-12-29T00:54:29.227Z,75.92
2017-12-29T00:56:56.741Z,76.08
2017-12-29T00:59:24.288Z,76.22
2017-12-29T01:01:51.801Z,75.75
2017-12-29T01:04:19.316Z,75.92
2017-12-29T01:06:46.840Z,76.06
2017-12-29T01:09:14.344Z,75.81
2017-12-29T01:11:41.879Z,75.83
2017-12-29T01:14:09.536Z,75.62
2017-12-29T01:16:37.064Z,76.19
2017-12-29T01:19:04.581Z,75.78
2017-12-29T01:21:32.093Z,75.98
2017-12-29T01:23:59.599Z,76.25
2017-12-29T01:26:27.114Z,76.15
2017-12-29T01:28:54.624Z,76.17
2017-12-29T01:31:22.131Z,76.11
2017-12-29T01:33:49.652Z,75.97
2017-12-29T01:36:17.165Z,76.32
2017-12-29T01:38:44.689Z,76.21
2017-12-29T01:41:12.208Z,76.20
2017-12-29T01:43:39.717Z,76.27
2017-12-29T01:46:07.229Z,76.34
2017-12-29T01:48:34.741Z,76.44
2017-12-29T01:51:02.244Z,76.53
2017-12-29T01:53:29.740Z,76.51
2017-12-29T01:55:57.271Z,76.75
2017-12-29T01:58:24.784Z,76.91
2017-12-29T02:00:52.292Z,76.66
2017-12-29T02:03:19.802Z,76.96
2017-12-29T02:05:47.313Z,76.76
2017-12-29T02:08:14.816Z,76.53
2017-12-29T02:10:42.319Z,76.46
2017-12-29T02:13:09.824Z,76.36
2017-12-29T02:15:37.337Z,76.66
2017-12-29T02:18:04.844Z,76.13
2017-12-29T02:20:32.357Z,76.10
2017-12-29T02:22:59.871Z,76.62
2017-12-29T02:25:27.381Z,76.46
2017-12-29T02:27:54.903Z,76.31
2017-12-29T02:30:22.417Z,76.07
2017-12-29T02:32:49.934Z,76.24
2017-12-29T02:35:17.448Z,76.28
2017-12-29T02:37:44.960Z,75.91
2017-12-29T02:40:12.466Z,76.31
2017-12-29T02:42:39.982Z,75.35
2017-12-29T02:45:07.502Z,76.06
2017-12-29T02:47:35.022Z,75.21
2017-12-29T02:50:02.548Z,75.76
2017-12-29T02:52:30.062Z,74.98
2017-12-29T02:54:57.575Z,74.75
2017-12-29T02:57:25.081Z,74.78
2017-12-29T02:59:52.601Z,74.65
2017-12-29T03:02:20.123Z,74.43
2017-12-29T03:04:47.634Z,74.93
2017-12-29T03:07:15.144Z,75.13
2017-12-29T03:09:42.659Z,74.84
2017-12-29T03:12:10.178Z,74.48
2017-12-29T03:14:38.496Z,74.73
2017-12-29T03:17:06.020Z,74.91
2017-12-29T03:19:33.516Z,75.20
2017-12-29T03:22:01.035Z,75.29
2017-12-29T03:24:28.546Z,75.28
2017-12-29T03:26:56.061Z,74.57
2017-12-29T03:29:23.578Z,74.95
2017-12-29T03:31:51.084Z,74.85
2017-12-29T03:34:18.601Z,75.15
2017-12-29T03:36:46.106Z,75.42
2017-12-29T03:39:13.617Z,74.97
2017-12-29T03:41:41.120Z,75.05
2017-12-29T03:44:08.629Z,75.48
2017-12-29T03:46:36.150Z,75.65
2017-12-29T03:49:03.660Z,74.90
2017-12-29T03:51:31.168Z,75.53
2017-12-29T03:53:58.684Z,74.93
2017-12-29T03:56:26.196Z,75.72
2017-12-29T03:58:53.717Z,75.55
2017-12-29T04:01:21.232Z,75.76
2017-12-29T04:03:48.748Z,75.79
2017-12-29T04:06:16.294Z,76.18
2017-12-29T04:08:43.780Z,75.95
2017-12-29T04:11:11.294Z,76.42
2017-12-29T04:13:38.804Z,76.62
2017-12-29T04:16:06.299Z,76.87
2017-12-29T04:18:33.814Z,77.08
2017-12-29T04:21:01.329Z,77.07
2017-12-29T04:23:28.841Z,77.70
2017-12-29T04:25:56.353Z,77.17
2017-12-29T04:28:23.864Z,77.54
2017-12-29T04:30:51.391Z,77.55
2017-12-29T04:33:18.902Z,78.06
2017-12-29T04:35:46.417Z,77.75
2017-12-29T04:38:13.936Z,77.86
2017-12-29T04:40:41.441Z,78.10
2017-12-29T04:43:08.966Z,77.86
2017-12-29T04:45:36.481Z,78.02
2017-12-29T04:48:04.000Z,77.80
2017-12-29T04:50:31.503Z,77.93
2017-12-29T04:52:59.010Z,77.81
2017-12-29T04:55:26.520Z,77.63
2017-12-29T04:57:54.031Z,77.64
2017-12-29T05:00:21.545Z,78.33
2017-12-29T05:02:49.062Z,77.71
2017-12-29T05:05:16.591Z,77.52
2017-12-29T05:07:44.104Z,77.58
2017-12-29T05:10:11.620Z,77.51
2017-12-29T05:12:39.142Z,77.28
2017-12-29T05:15:06.668Z,77.07
2017-12-29T05:17:34.227Z,77.23
2017-12-29T05:20:01.723Z,77.11
2017-12-29T05:22:29.227Z,77.22
2017-12-29T05:24:56.727Z,77.34
2017-12-29T05:27:24.247Z,77.62
2017-12-29T05:29:51.753Z,77.87
2017-12-29T05:32:19.272Z,78.03
2017-12-29T05:34:46.790Z,77.89
2017-12-29T05:37:14.321Z,78.22
2017-12-29T05:39:41.841Z,77.76
2017-12-29T05:42:09.353Z,77.88
2017-12-29T05:44:36.866Z,77.75
2017-12-29T05:47:04.381Z,77.83
2017-12-29T05:49:31.903Z,77.66
2017-12-29T05:51:59.418Z,77.75
2017-12-29T05:54:26.940Z,77.50
2017-12-29T05:56:54.445Z,77.33
2017-12-29T05:59:21.947Z,77.47
2017-12-29T06:01:49.460Z,77.57
2017-12-29T06:04:16.978Z,77.59
2017-12-29T06:06:44.572Z,77.47
2017-12-29T06:09:12.148Z,77.19
2017-12-29T06:11:39.672Z,77.27
2017-12-29T06:14:07.191Z,76.91
2017-12-29T06:16:34.703Z,77.33
2017-12-29T06:19:02.232Z,76.86
2017-12-29T06:21:29.749Z,76.79
2017-12-29T06:23:57.256Z,76.55
2017-12-29T06:26:24.784Z,77.08
2017-12-29T06:28:52.303Z,76.71
2017-12-29T06:31:19.820Z,76.47
2017-12-29T06:33:47.324Z,76.71
2017-12-29T06:36:15.112Z,76.38
2017-12-29T06:38:42.618Z,76.75
2017-12-29T06:41:10.134Z,76.11
2017-12-29T06:43:37.648Z,76.20
2017-12-29T06:46:05.159Z,76.15
2017-12-29T06:48:32.682Z,76.34
2017-12-29T06:51:00.197Z,76.55
2017-12-29T06:53:27.711Z,76.22
2017-12-29T06:55:55.225Z,75.95
2017-12-29T06:58:22.744Z,76.25
2017-12-29T07:00:50.263Z,75.85
2017-12-29T07:03:17.768Z,76.16
2017-12-29T07:05:45.324Z,75.64
2017-12-29T07:08:12.829Z,75.87
2017-12-29T07:10:40.340Z,76.10
2017-12-29T07:13:07.866Z,75.98
2017-12-29T07:15:35.373Z,75.70
2017-12-29T07:18:02.898Z,75.67
2017-12-29T07:20:30.413Z,75.70
2017-12-29T07:22:57.937Z,75.76
2017-12-29T07:25:25.468Z,75.93
2017-12-29T07:27:52.981Z,75.95
2017-12-29T07:30:20.497Z,75.49
2017-12-29T07:32:48.013Z,76.18
2017-12-29T07:35:15.525Z,75.73
2017-12-29T07:37:43.027Z,75.63
2017-12-29T07:40:10.552Z,75.86
2017-12-29T07:42:38.079Z,75.68
2017-12-29T07:45:05.597Z,75.54
2017-12-29T07:47:33.151Z,75.46
2017-12-29T07:50:00.673Z,75.35
2017-12-29T07:52:28.184Z,75.59
2017-12-29T07:54:55.697Z,75.43
2017-12-29T07:57:23.205Z,74.96
2017-12-29T07:59:50.719Z,75.00
2017-12-29T08:02:18.241Z,74.81
2017-12-29T08:04:45.745Z,74.75
2017-12-29T08:07:13.253Z,74.82
2017-12-29T08:09:40.767Z,75.06
2017-12-29T08:12:08.272Z,74.94
2017-12-29T08:14:35.789Z,74.92
2017-12-29T08:17:03.347Z,74.66
2017-12-29T08:19:30.864Z,74.79
2017-12-29T08:21:58.385Z,74.77
2017-12-29T08:24:25.904Z,74.51
2017-12-29T08:26:53.419Z,74.72
2017-12-29T08:29:20.963Z,75.13
2017-12-29T08:31:48.460Z,74.65
2017-12-29T08:34:15.976Z,74.00
2017-12-29T08:36:43.494Z,74.04
2017-12-29T08:39:11.004Z,74.19
2017-12-29T08:41:38.524Z,74.44
2017-12-29T08:44:06.044Z,74.49
2017-12-29T08:46:33.552Z,73.91
2017-12-29T08:49:01.068Z,73.93
2017-12-29T08:51:28.585Z,73.94
2017-12-29T08:53:56.092Z,73.77
2017-12-29T08:56:23.605Z,74.21
2017-12-29T08:58:51.125Z,74.02
2017-12-29T09:01:18.648Z,74.44
2017-12-29T09:03:46.167Z,74.18
2017-12-29T09:06:13.672Z,74.18
2017-12-29T09:08:41.232Z,74.33
2017-12-29T09:11:08.754Z,74.01
2017-12-29T09:13:36.285Z,74.22
2017-12-29T09:16:03.811Z,73.68
2017-12-29T09:18:31.313Z,73.79
2017-12-29T09:20:58.876Z,73.09
2017-12-29T09:23:26.395Z,73.25
2017-12-29T09:25:53.902Z,72.81
2017-12-29T09:28:21.403Z,72.56
2017-12-29T09:30:48.905Z,72.57
2017-12-29T09:33:16.435Z,72.57
2017-12-29T09:35:43.966Z,72.25
2017-12-29T09:38:11.489Z,71.95
2017-12-29T09:40:39.002Z,72.37
2017-12-29T09:43:06.513Z,72.00
2017-12-29T09:45:34.027Z,71.97
2017-12-29T09:48:01.594Z,72.90
2017-12-29T09:50:29.104Z,72.01
2017-12-29T09:52:56.641Z,72.31
2017-12-29T09:55:24.168Z,72.30
2017-12-29T09:57:51.693Z,72.24
2017-12-29T10:00:19.201Z,72.28
2017-12-29T10:02:46.712Z,72.38
2017-12-29T10:05:14.225Z,72.09
2017-12-29T10:07:41.728Z,71.69
2017-12-29T10:10:09.253Z,72.44
2017-12-29T10:12:36.765Z,71.76
2017-12-29T10:15:04.326Z,72.05
2017-12-29T10:17:31.871Z,71.72
2017-12-29T10:19:59.389Z,71.85
2017-12-29T10:22:26.915Z,71.59
2017-12-29T10:24:54.435Z,71.25
2017-12-29T10:27:21.938Z,70.80
2017-12-29T10:29:49.451Z,71.02
2017-12-29T10:32:16.970Z,71.46
2017-12-29T10:34:44.471Z,70.90
2017-12-29T10:37:11.996Z,70.43
2017-12-29T10:39:39.500Z,70.04
2017-12-29T10:42:07.024Z,70.80
2017-12-29T10:44:34.540Z,70.46
2017-12-29T10:47:02.042Z,69.88
2017-12-29T10:49:29.554Z,70.15
2017-12-29T10:51:57.066Z,69.97
2017-12-29T10:54:24.578Z,69.79
2017-12-29T10:56:52.092Z,69.65
2017-12-29T10:59:20.268Z,70.07
2017-12-29T11:01:47.776Z,69.80
2017-12-29T11:04:15.287Z,69.29
2017-12-29T11:06:42.796Z,69.22
2017-12-29T11:09:10.354Z,69.20
2017-12-29T11:11:37.860Z,68.85
2017-12-29T11:14:05.371Z,68.31
2017-12-29T11:16:32.943Z,68.25
2017-12-29T11:19:00.459Z,68.16
2017-12-29T11:21:28.012Z,67.54
2017-12-29T11:23:55.512Z,67.71
2017-12-29T11:26:23.035Z,66.96
2017-12-29T11:28:50.544Z,66.56
2017-12-29T11:31:18.044Z,66.76
2017-12-29T11:33:45.557Z,66.77
2017-12-29T11:36:13.058Z,66.76
2017-12-29T11:38:40.563Z,66.96
2017-12-29T11:41:08.078Z,66.41
2017-12-29T11:43:35.587Z,65.30
2017-12-29T11:46:03.106Z,66.62
2017-12-29T11:48:30.619Z,66.47
2017-12-29T11:50:58.143Z,67.03
2017-12-29T11:53:25.654Z,65.78
2017-12-29T11:55:53.160Z,66.29
2017-12-29T11:58:20.666Z,66.52
2017-12-29T12:00:48.179Z,65.42
2017-12-29T12:03:15.697Z,65.48
2017-12-29T12:05:43.204Z,65.07
2017-12-29T12:08:10.719Z,64.97
2017-12-29T12:10:38.226Z,65.40
2017-12-29T12:13:05.737Z,65.24
2017-12-29T12:15:33.244Z,64.75
2017-12-29T12:18:00.752Z,65.45
2017-12-29T12:20:28.257Z,66.01
2017-12-29T12:22:55.775Z,66.38
2017-12-29T12:25:23.283Z,65.72
2017-12-29T12:27:50.796Z,66.31
2017-12-29T12:30:18.313Z,66.70
2017-12-29T12:32:45.827Z,67.03
2017-12-29T12:35:13.342Z,67.15
2017-12-29T12:37:40.856Z,66.81
2017-12-29T12:40:08.370Z,66.92
2017-12-29T12:42:35.867Z,66.86
2017-12-29T12:45:03.368Z,68.06
2017-12-29T12:47:30.877Z,67.65
2017-12-29T12:49:58.389Z,67.81
2017-12-29T12:52:25.903Z,68.06
2017-12-29T12:54:53.411Z,67.46
2017-12-29T12:57:20.921Z,67.94
2017-12-29T12:59:48.432Z,68.50
2017-12-29T13:02:15.948Z,68.25
2017-12-29T13:04:43.465Z,68.32
2017-12-29T13:07:10.982Z,69.03
2017-12-29T13:09:38.506Z,68.57
2017-12-29T13:12:06.026Z,68.88
2017-12-29T13:14:33.545Z,69.01
2017-12-29T13:17:01.045Z,69.17
2017-12-29T13:19:28.562Z,69.32
2017-12-29T13:21:56.071Z,69.23
2017-12-29T13:24:23.583Z,69.12
2017-12-29T13:26:51.096Z,68.94
2017-12-29T13:29:18.650Z,68.81
2017-12-29T13:31:46.157Z,68.76
2017-12-29T13:34:13.652Z,68.90
2017-12-29T13:36:41.172Z,68.13
2017-12-29T13:39:08.678Z,68.12
2017-12-29T13:41:36.189Z,68.39
2017-12-29T13:44:03.699Z,69.21
2017-12-29T13:46:31.209Z,68.11
2017-12-29T13:48:58.716Z,68.41
2017-12-29T13:51:26.252Z,67.94
2017-12-29T13:53:53.768Z,67.94
2017-12-29T13:56:21.287Z,68.08
2017-12-29T13:58:48.792Z,67.89
2017-12-29T14:01:16.308Z,68.01
2017-12-29T14:03:43.821Z,68.08
2017-12-29T14:06:11.336Z,68.45
2017-12-29T14:08:38.850Z,68.29
2017-12-29T14:11:06.365Z,68.03
2017-12-29T14:13:33.876Z,68.45
2017-12-29T14:16:01.380Z,68.48
2017-12-29T14:18:28.897Z,68.02
2017-12-29T14:20:56.404Z,68.10
2017-12-29T14:23:23.935Z,68.50
2017-12-29T14:25:51.451Z,68.63
2017-12-29T14:28:18.962Z,68.62
2017-12-29T14:30:46.474Z,69.31
2017-12-29T14:33:13.983Z,69.12
2017-12-29T14:35:41.512Z,69.04
2017-12-29T14:38:09.014Z,69.65
2017-12-29T14:40:36.537Z,69.10
2017-12-29T14:43:04.044Z,69.36
2017-12-29T14:45:31.552Z,69.48
2017-12-29T14:47:59.068Z,70.14
2017-12-29T14:50:26.578Z,70.29
2017-12-29T14:52:54.085Z,69.93
2017-12-29T14:55:21.611Z,69.99
2017-12-29T14:57:49.120Z,70.37
2017-12-29T15:00:16.646Z,70.80
2017-12-29T15:02:44.151Z,70.83
2017-12-29T15:05:11.677Z,71.15
2017-12-29T15:07:39.197Z,71.13
2017-12-29T15:10:06.695Z,70.94
2017-12-29T15:12:34.206Z,71.17
2017-12-29T15:15:01.708Z,71.16
2017-12-29T15:17:29.214Z,71.96
2017-12-29T15:19:56.728Z,71.94
2017-12-29T15:22:24.241Z,72.28
2017-12-29T15:24:51.747Z,73.12
2017-12-29T15:27:19.261Z,72.98
2017-12-29T15:29:46.775Z,73.11
2017-12-29T15:32:14.284Z,73.24
2017-12-29T15:34:41.792Z,73.39
2017-12-29T15:37:09.297Z,73.73
2017-12-29T15:39:36.808Z,74.13
2017-12-29T15:42:04.318Z,74.02
2017-12-29T15:44:31.820Z,74.11
2017-12-29T15:46:59.348Z,74.53
2017-12-29T15:49:26.870Z,74.73
2017-12-29T15:51:54.412Z,74.44
2017-12-29T15:54:21.925Z,74.70
2017-12-29T15:56:49.440Z,74.73
2017-12-29T15:59:16.942Z,74.75
2017-12-29T16:01:45.240Z,74.54
2017-12-29T16:04:12.743Z,74.74
2017-12-29T16:06:40.269Z,74.68
2017-12-29T16:09:07.892Z,74.37
2017-12-29T16:11:35.424Z,74.46
2017-12-29T16:14:02.936Z,74.90
2017-12-29T16:16:30.461Z,74.46
2017-12-29T16:18:58.002Z,74.74
2017-12-29T16:21:25.517Z,74.68
2017-12-29T16:23:53.036Z,74.54
2017-12-29T16:26:20.615Z,74.82
2017-12-29T16:28:48.138Z,74.91
2017-12-29T16:31:15.644Z,74.95
2017-12-29T16:33:43.167Z,74.63
2017-12-29T16:36:10.719Z,74.76
2017-12-29T16:38:38.282Z,74.87
2017-12-29T16:41:05.867Z,74.62
2017-12-29T16:43:33.381Z,74.65
2017-12-29T16:46:00.892Z,74.87
2017-12-29T16:48:28.400Z,74.57
2017-12-29T16:50:55.921Z,74.95
2017-12-29T16:53:23.451Z,75.18
2017-12-29T16:55:50.996Z,74.85
2017-12-29T16:58:18.517Z,74.78
2017-12-29T17:00:46.041Z,74.64
2017-12-29T17:03:13.568Z,74.80
2017-12-29T17:05:41.085Z,74.67
2017-12-29T17:08:08.597Z,74.87
2017-12-29T17:10:36.163Z,74.54
2017-12-29T17:13:03.692Z,74.75
2017-12-29T17:15:31.211Z,74.43
2017-12-29T17:17:58.721Z,74.64
2017-12-29T17:20:26.249Z,74.89
2017-12-29T17:22:53.761Z,74.70
2017-12-29T17:25:21.294Z,74.74
2017-12-29T17:27:48.875Z,74.67
2017-12-29T17:30:16.416Z,74.91
2017-12-29T17:32:43.951Z,74.89
2017-12-29T17:35:11.468Z,75.24
2017-12-29T17:37:38.981Z,75.12
2017-12-29T17:40:06.483Z,75.07
2017-12-29T17:42:34.014Z,75.25
2017-12-29T17:45:01.542Z,75.19
2017-12-29T17:47:29.062Z,75.33
2017-12-29T17:49:56.578Z,75.27
2017-12-29T17:52:24.080Z,75.66
2017-12-29T17:54:51.594Z,75.69
2017-12-29T17:57:19.108Z,75.52
2017-12-29T17:59:46.621Z,75.16
2017-12-29T18:02:14.341Z,75.13
2017-12-29T18:04:41.887Z,75.15
2017-12-29T18:07:09.419Z,75.33
2017-12-29T18:09:36.932Z,75.56
2017-12-29T18:12:04.461Z,75.73
2017-12-29T18:14:31.974Z,75.78
2017-12-29T18:16:59.497Z,76.00
2017-12-29T18:19:27.021Z,75.71
2017-12-29T18:21:54.544Z,75.83
2017-12-29T18:24:22.068Z,75.71
2017-12-29T18:26:49.564Z,75.65
2017-12-29T18:29:17.124Z,75.62
2017-12-29T18:31:44.639Z,75.74
2017-12-29T18:34:12.161Z,75.89
2017-12-29T18:36:39.687Z,75.86
2017-12-29T18:39:07.189Z,75.94
2017-12-29T18:41:34.705Z,76.00
2017-12-29T18:44:02.225Z,76.12
2017-12-29T18:46:29.792Z,76.29
2017-12-29T18:48:57.365Z,76.27
2017-12-29T18:51:24.866Z,76.30
2017-12-29T18:53:52.368Z,76.21
2017-12-29T18:56:19.895Z,76.25
2017-12-29T18:58:47.429Z,76.38
2017-12-29T19:01:14.945Z,76.42
2017-12-29T19:03:42.452Z,76.47
2017-12-29T19:06:09.973Z,76.49
2017-12-29T19:08:37.475Z,76.71
2017-12-29T19:11:04.985Z,76.42
2017-12-29T19:13:32.504Z,76.52
2017-12-29T19:16:00.022Z,76.32
2017-12-29T19:18:27.532Z,76.23
2017-12-29T19:20:55.055Z,76.23
2017-12-29T19:23:22.574Z,76.23
2017-12-29T19:25:50.083Z,76.13
2017-12-29T19:28:17.640Z,76.21
2017-12-29T19:30:45.357Z,76.34
2017-12-29T19:33:12.881Z,76.22
2017-12-29T19:35:40.391Z,76.04
2017-12-29T19:38:07.898Z,76.27
2017-12-29T19:40:35.425Z,76.15
2017-12-29T19:43:02.953Z,76.08
2017-12-29T19:45:30.517Z,76.04
2017-12-29T19:47:58.046Z,76.03
2017-12-29T19:50:25.579Z,76.33
2017-12-29T19:52:53.089Z,76.39
2017-12-29T19:55:20.600Z,76.44
2017-12-29T19:57:48.121Z,76.47
2017-12-29T20:00:15.645Z,76.68
2017-12-29T20:02:43.149Z,76.74
2017-12-29T20:05:10.668Z,76.61
2017-12-29T20:07:38.208Z,76.58
2017-12-29T20:10:05.728Z,76.60
2017-12-29T20:12:33.240Z,76.46
2017-12-29T20:15:00.752Z,76.65
2017-12-29T20:17:28.264Z,76.63
2017-12-29T20:19:55.774Z,76.85
2017-12-29T20:22:23.302Z,76.64
2017-12-29T20:24:50.807Z,76.75
2017-12-29T20:27:18.321Z,76.91
2017-12-29T20:29:45.824Z,76.80
2017-12-29T20:32:13.341Z,76.77
2017-12-29T20:34:40.854Z,76.78
2017-12-29T20:37:08.377Z,76.67
2017-12-29T20:39:35.901Z,76.71
2017-12-29T20:42:03.408Z,76.67
2017-12-29T20:44:30.912Z,76.71
2017-12-29T20:46:58.424Z,76.62
2017-12-29T20:49:25.931Z,76.91
2017-12-29T20:51:53.461Z,76.69
2017-12-29T20:54:21.031Z,76.80
2017-12-29T20:56:48.540Z,76.62
2017-12-29T20:59:16.065Z,76.61
2017-12-29T21:01:43.571Z,76.76
2017-12-29T21:04:11.078Z,76.65
2017-12-29T21:06:38.585Z,76.49
2017-12-29T21:09:06.084Z,76.65
2017-12-29T21:11:33.610Z,76.67
2017-12-29T21:14:01.127Z,76.76
2017-12-29T21:16:28.637Z,76.70
2017-12-29T21:18:56.164Z,76.60
2017-12-29T21:21:23.700Z,76.78
2017-12-29T21:23:51.239Z,76.66
2017-12-29T21:26:18.791Z,76.75
2017-12-29T21:28:46.295Z,76.74
2017-12-29T21:31:13.802Z,76.77
2017-12-29T21:33:41.349Z,76.88
2017-12-29T21:36:08.870Z,76.91
2017-12-29T21:38:36.390Z,76.89
2017-12-29T21:41:03.910Z,76.95
2017-12-29T21:43:31.434Z,77.03
2017-12-29T21:45:58.945Z,77.16
2017-12-29T21:48:26.504Z,77.24
2017-12-29T21:50:54.028Z,77.35
2017-12-29T21:53:21.535Z,77.46
2017-12-29T21:55:49.044Z,77.45
2017-12-29T21:58:16.567Z,77.49
2017-12-29T22:00:44.080Z,77.58
2017-12-29T22:03:11.620Z,77.70
2017-12-29T22:05:39.150Z,77.60
2017-12-29T22:08:06.682Z,77.51
2017-12-29T22:10:34.189Z,77.43
2017-12-29T22:13:01.692Z,77.46
2017-12-29T22:15:29.201Z,77.41
2017-12-29T22:17:56.720Z,77.46
2017-12-29T22:20:24.268Z,77.43
2017-12-29T22:22:51.789Z,77.43
2017-12-29T22:25:19.299Z,77.45
2017-12-29T22:27:46.823Z,77.57
2017-12-29T22:30:14.368Z,79.47
2017-12-29T22:32:42.002Z,77.65
2017-12-29T22:35:09.528Z,77.71
2017-12-29T22:37:37.104Z,77.34
2017-12-29T22:40:04.629Z,77.32
2017-12-29T22:42:32.162Z,77.37
2017-12-29T22:44:59.678Z,77.22
2017-12-29T22:47:27.192Z,77.11
2017-12-29T22:49:54.699Z,77.19
2017-12-29T22:52:22.243Z,77.15
2017-12-29T22:54:49.785Z,76.92
2017-12-29T22:57:17.300Z,77.01
2017-12-29T22:59:44.810Z,77.05
2017-12-29T23:02:12.322Z,76.91
2017-12-29T23:04:39.824Z,76.81
2017-12-29T23:07:07.352Z,76.78
